Lakewood, New York
Current Conditions -  °F | °C
As of 10:35 AM on Thursday 30 Oct 2014 (Local Time) from KJHW Reporting Station
Overcast Overcast  
Wind Chill: 37°   Ceiling: 2600
Heat Index: 41°   Visibility: 10mi
Dew Point: 34°   Wind: 6mph
Humidity: 76%   Direction: 310°NW
Pressure: 30.07"   Gusts: NA
Location:  42.1°N, 79.33°W
Report Text: KJHW 301435Z AUTO 31005KT 10SM OVC026 05/01 A3007 RMK AO1
Loading
Personal Weather Stations






























Interactive Weather Map
Tropical Storm Tracking
New forecast layout! Learn more

10-Day Weather Forecast

Advertisements
Track Severe Weather on mobile